createdAt,value
2023-02-21T00:01:36.937Z,7.5
2023-02-21T00:03:38.472Z,7.6
2023-02-21T00:05:40.286Z,7.56
2023-02-21T00:07:42.207Z,7.48
2023-02-21T00:09:43.970Z,7.45
2023-02-21T00:11:45.337Z,7.44
2023-02-21T00:13:47.229Z,7.25
2023-02-21T00:15:48.860Z,7.47
2023-02-21T00:17:50.030Z,7.35
2023-02-21T00:19:51.626Z,7.5
2023-02-21T00:21:52.615Z,7.57
2023-02-21T00:23:54.107Z,7.44
2023-02-21T00:25:55.516Z,7.55
2023-02-21T00:27:57.443Z,7.58
2023-02-21T00:29:59.224Z,7.42
2023-02-21T00:32:01.090Z,7.68
2023-02-21T00:34:03.036Z,7.65
2023-02-21T00:36:04.803Z,7.55
2023-02-21T00:38:06.594Z,7.39
2023-02-21T00:40:08.427Z,7.42
2023-02-21T00:42:10.149Z,7.35
2023-02-21T00:44:19.819Z,7.36
2023-02-21T00:46:13.053Z,7.25
2023-02-21T00:48:14.507Z,7.18
2023-02-21T00:50:16.058Z,7.03
2023-02-21T00:52:17.935Z,7.03
2023-02-21T00:54:19.159Z,6.92
2023-02-21T00:56:21.095Z,6.83
2023-02-21T00:58:22.361Z,6.85
2023-02-21T01:00:23.742Z,6.84
2023-02-21T01:02:25.439Z,6.82
2023-02-21T01:04:26.970Z,6.84
2023-02-21T01:06:28.309Z,6.9
2023-02-21T01:08:30.134Z,6.85
2023-02-21T01:10:31.742Z,6.83
2023-02-21T01:12:32.847Z,6.82
2023-02-21T01:16:36.066Z,6.75
2023-02-21T01:18:37.889Z,6.7
2023-02-21T01:20:39.812Z,6.64
2023-02-21T01:22:40.853Z,6.64
2023-02-21T01:24:42.314Z,6.64
2023-02-21T01:26:43.475Z,6.67
2023-02-21T01:28:45.305Z,6.7
2023-02-21T01:30:47.133Z,6.61
2023-02-21T01:32:48.644Z,6.66
2023-02-21T01:34:50.504Z,6.6
2023-02-21T01:36:51.917Z,6.52
2023-02-21T01:38:53.641Z,6.5
2023-02-21T01:40:54.578Z,6.3
2023-02-21T01:42:56.107Z,6.18
2023-02-21T01:44:58.061Z,6.12
2023-02-21T01:46:59.208Z,6.09
2023-02-21T01:49:00.238Z,6.08
2023-02-21T01:51:02.121Z,6.12
2023-02-21T01:53:03.634Z,6.06
2023-02-21T01:55:05.414Z,6.06
2023-02-21T01:57:06.575Z,5.99
2023-02-21T01:59:07.761Z,5.97
2023-02-21T02:01:08.791Z,5.89
2023-02-21T02:03:10.416Z,5.83
2023-02-21T02:05:11.490Z,5.92
2023-02-21T02:07:12.727Z,5.84
2023-02-21T02:09:14.085Z,5.74
2023-02-21T02:11:16.206Z,5.7
2023-02-21T02:13:17.804Z,5.61
2023-02-21T02:15:19.262Z,5.57
2023-02-21T02:17:20.617Z,5.54
2023-02-21T02:19:21.883Z,5.51
2023-02-21T02:21:23.693Z,5.39
2023-02-21T02:23:24.697Z,5.38
2023-02-21T02:25:26.280Z,5.55
2023-02-21T02:27:28.078Z,5.57
2023-02-21T02:29:29.728Z,5.56
2023-02-21T02:31:31.188Z,5.48
2023-02-21T02:33:32.667Z,5.44
2023-02-21T02:35:33.795Z,5.43
2023-02-21T02:37:34.944Z,5.38
2023-02-21T02:39:36.428Z,5.41
2023-02-21T02:41:37.490Z,5.41
2023-02-21T02:42:21.312Z,5.45
2023-02-21T02:44:22.296Z,5.39
2023-02-21T02:46:23.751Z,5.3
2023-02-21T02:48:25.663Z,5.18
2023-02-21T02:50:26.752Z,5.22
2023-02-21T02:52:28.051Z,5.21
2023-02-21T02:54:29.731Z,5.17
2023-02-21T02:56:31.470Z,5.17
2023-02-21T02:58:32.617Z,5.09
2023-02-21T03:00:34.523Z,4.99
2023-02-21T03:02:35.821Z,4.89
2023-02-21T03:04:37.718Z,4.9
2023-02-21T03:06:38.973Z,4.88
2023-02-21T03:08:40.558Z,4.92
2023-02-21T03:10:41.643Z,4.9
2023-02-21T03:12:43.212Z,4.8
2023-02-21T03:14:44.469Z,4.98
2023-02-21T03:16:46.149Z,5.07
2023-02-21T03:18:47.121Z,4.97
2023-02-21T03:20:48.449Z,5
2023-02-21T03:22:49.701Z,4.98
2023-02-21T03:24:50.888Z,4.98
2023-02-21T03:26:52.607Z,4.93
2023-02-21T03:28:54.488Z,4.82
2023-02-21T03:30:56.569Z,4.7
2023-02-21T03:34:59.133Z,4.54
2023-02-21T03:37:00.977Z,4.56
2023-02-21T03:39:02.543Z,4.61
2023-02-21T03:41:04.034Z,4.61
2023-02-21T03:43:05.883Z,4.63
2023-02-21T03:45:15.088Z,4.5
2023-02-21T03:47:08.393Z,4.37
2023-02-21T03:49:10.080Z,4.37
2023-02-21T03:51:11.994Z,4.35
2023-02-21T03:53:13.376Z,4.27
2023-02-21T03:55:15.248Z,4.23
2023-02-21T03:57:17.051Z,4.15
2023-02-21T03:59:18.200Z,4.07
2023-02-21T04:01:19.655Z,4.14
2023-02-21T04:03:21.225Z,4.01
2023-02-21T04:05:22.280Z,4.01
2023-02-21T04:07:23.923Z,3.82
2023-02-21T04:09:25.043Z,3.75
2023-02-21T04:11:26.267Z,3.66
2023-02-21T04:13:27.321Z,3.82
2023-02-21T04:15:28.536Z,3.74
2023-02-21T04:17:38.720Z,3.65
2023-02-21T04:19:31.030Z,3.69
2023-02-21T04:21:32.063Z,3.72
2023-02-21T04:23:33.994Z,3.89
2023-02-21T04:25:35.455Z,3.76
2023-02-21T04:27:37.446Z,3.51
2023-02-21T04:29:38.676Z,3.2
2023-02-21T04:31:40.603Z,2.91
2023-02-21T04:33:41.911Z,2.82
2023-02-21T04:35:43.600Z,2.86
2023-02-21T04:37:44.720Z,2.88
2023-02-21T04:39:46.598Z,2.83
2023-02-21T04:41:48.323Z,2.86
2023-02-21T04:43:50.043Z,3.04
2023-02-21T04:45:51.875Z,3.21
2023-02-21T04:47:53.535Z,3.43
2023-02-21T04:49:54.570Z,3.46
2023-02-21T04:51:56.211Z,3.48
2023-02-21T04:53:58.056Z,3.5
2023-02-21T04:55:59.668Z,3.5
2023-02-21T04:58:01.478Z,3.44
2023-02-21T05:00:02.762Z,3.47
2023-02-21T05:02:03.975Z,3.47
2023-02-21T05:04:05.379Z,3.28
2023-02-21T05:06:06.410Z,2.75
2023-02-21T05:08:07.712Z,2.44
2023-02-21T05:10:09.604Z,2.35
2023-02-21T05:12:10.991Z,2.44
2023-02-21T05:14:12.573Z,2.47
2023-02-21T05:16:14.376Z,2.28
2023-02-21T05:18:15.926Z,2.29
2023-02-21T05:20:17.824Z,2.28
2023-02-21T05:22:19.491Z,2.34
2023-02-21T05:24:21.330Z,2.29
2023-02-21T05:26:23.218Z,2.22
2023-02-21T05:28:25.081Z,2.12
2023-02-21T05:30:27.075Z,2.17
2023-02-21T05:32:28.335Z,2.37
2023-02-21T05:34:29.732Z,2.38
2023-02-21T05:36:31.655Z,2.25
2023-02-21T05:38:33.667Z,2.29
2023-02-21T05:40:35.418Z,2.21
2023-02-21T05:42:37.315Z,2.16
2023-02-21T05:44:39.125Z,2.08
2023-02-21T05:46:41.015Z,2.18
2023-02-21T05:48:42.593Z,2.21
2023-02-21T05:50:43.796Z,2.27
2023-02-21T05:52:45.687Z,2.6
2023-02-21T05:54:47.050Z,2.7
2023-02-21T05:56:48.449Z,2.74
2023-02-21T05:58:50.013Z,2.76
2023-02-21T06:00:51.483Z,3.09
2023-02-21T06:02:53.371Z,3
2023-02-21T06:04:54.747Z,2.87
2023-02-21T06:06:56.256Z,2.82
2023-02-21T06:08:57.798Z,2.97
2023-02-21T06:10:59.294Z,3.28
2023-02-21T06:13:00.429Z,3.32
2023-02-21T06:15:02.562Z,3.41
2023-02-21T06:17:03.586Z,3.49
2023-02-21T06:19:05.049Z,3.3
2023-02-21T06:21:06.778Z,3.11
2023-02-21T06:23:07.925Z,3
2023-02-21T06:25:09.686Z,2.87
2023-02-21T06:27:11.367Z,2.99
2023-02-21T06:29:13.027Z,3.28
2023-02-21T06:31:14.665Z,3.53
2023-02-21T06:33:15.947Z,3.42
2023-02-21T06:35:17.210Z,3.35
2023-02-21T06:37:18.637Z,3.27
2023-02-21T06:39:19.753Z,3.37
2023-02-21T06:41:21.447Z,3.59
2023-02-21T06:43:22.499Z,3.84
2023-02-21T06:45:23.629Z,4.32
2023-02-21T06:47:25.264Z,4.32
2023-02-21T06:49:27.089Z,4.3
2023-02-21T06:51:28.826Z,4.33
2023-02-21T06:53:30.134Z,4.47
2023-02-21T06:55:31.759Z,4.57
2023-02-21T06:57:33.096Z,4.76
2023-02-21T06:59:34.517Z,4.76
2023-02-21T07:01:36.452Z,4.81
2023-02-21T07:03:37.560Z,4.89
2023-02-21T07:05:38.816Z,5.03
2023-02-21T07:07:39.997Z,5.13
2023-02-21T07:09:41.029Z,5.17
2023-02-21T07:11:42.673Z,5.22
2023-02-21T07:13:44.090Z,5.31
2023-02-21T07:15:45.753Z,5.14
2023-02-21T07:17:47.409Z,5.18
2023-02-21T07:19:49.177Z,5.28
2023-02-21T07:21:50.998Z,5.43
2023-02-21T07:23:51.991Z,5.48
2023-02-21T07:25:53.129Z,5.56
2023-02-21T07:27:54.118Z,5.55
2023-02-21T07:29:55.445Z,5.8
2023-02-21T07:31:56.917Z,6.44
2023-02-21T07:33:58.038Z,6.79
2023-02-21T07:35:59.501Z,7.48
2023-02-21T07:38:00.459Z,8.41
2023-02-21T07:40:02.156Z,8.47
2023-02-21T07:42:03.471Z,9.39
2023-02-21T07:44:04.479Z,9.21
2023-02-21T07:46:06.400Z,9.21
2023-02-21T07:48:07.649Z,8.81
2023-02-21T07:50:08.632Z,9
2023-02-21T07:52:10.190Z,9.13
2023-02-21T07:54:11.420Z,8.9
2023-02-21T07:56:13.261Z,8.95
2023-02-21T07:58:14.536Z,9.19
2023-02-21T08:00:16.146Z,9.18
2023-02-21T08:02:17.566Z,9.75
2023-02-21T08:04:19.237Z,9.58
2023-02-21T08:06:20.413Z,9.65
2023-02-21T08:08:21.965Z,9.77
2023-02-21T08:10:23.266Z,9.87
2023-02-21T08:12:25.001Z,10.01
2023-02-21T08:14:26.834Z,9.78
2023-02-21T08:16:28.530Z,9.99
2023-02-21T08:18:29.323Z,10.76
2023-02-21T08:20:31.107Z,10.73
2023-02-21T08:22:32.859Z,11.01
2023-02-21T08:24:34.391Z,10.13
2023-02-21T08:26:35.910Z,10.29
2023-02-21T08:28:37.216Z,10.93
2023-02-21T08:30:38.371Z,11.01
2023-02-21T08:32:40.043Z,10.44
2023-02-21T08:34:41.719Z,10.24
2023-02-21T08:36:43.311Z,10.54
2023-02-21T08:38:45.045Z,10.68
2023-02-21T08:40:46.588Z,10.91
2023-02-21T08:42:48.150Z,10.68
2023-02-21T08:44:49.942Z,10.75
2023-02-21T08:46:50.990Z,11.16
2023-02-21T08:48:52.680Z,11.42
2023-02-21T08:50:54.394Z,11.49
2023-02-21T08:52:55.377Z,11.64
2023-02-21T08:54:56.823Z,11.07
2023-02-21T08:56:58.325Z,10.4
2023-02-21T08:59:00.069Z,10.96
2023-02-21T09:01:01.026Z,11.43
2023-02-21T09:03:02.673Z,11.66
2023-02-21T09:05:03.681Z,12.05
2023-02-21T09:07:05.521Z,12.31
2023-02-21T09:09:07.102Z,12.26
2023-02-21T09:11:08.152Z,11.36
2023-02-21T09:13:09.479Z,11.36
2023-02-21T09:15:11.107Z,11.72
2023-02-21T09:17:22.232Z,11.09
2023-02-21T09:19:13.688Z,10.4
2023-02-21T09:21:15.032Z,10.41
2023-02-21T09:23:16.483Z,10.28
2023-02-21T09:25:17.607Z,10.36
2023-02-21T09:27:19.325Z,10.23
2023-02-21T09:30:04.476Z,10.72
2023-02-21T09:32:06.228Z,10.5
2023-02-21T09:34:07.806Z,10.64
2023-02-21T09:36:09.641Z,11.08
2023-02-21T09:38:10.898Z,11.36
2023-02-21T09:40:12.746Z,11.4
2023-02-21T09:42:14.931Z,11.41
2023-02-21T09:44:16.642Z,11.48
2023-02-21T09:46:17.999Z,11.74
2023-02-21T09:48:19.518Z,12.13
2023-02-21T09:50:21.151Z,12.32
2023-02-21T09:52:22.396Z,12.32
2023-02-21T09:54:24.175Z,12.19
2023-02-21T09:56:26.331Z,12.01
2023-02-21T09:58:27.283Z,11.51
2023-02-21T10:00:28.590Z,11.34
2023-02-21T10:02:29.505Z,11.32
2023-02-21T10:04:30.936Z,11.33
2023-02-21T10:06:32.493Z,11.32
2023-02-21T10:08:34.257Z,11.24
2023-02-21T10:10:36.586Z,11.35
2023-02-21T10:12:38.240Z,11.06
2023-02-21T10:14:39.193Z,11.09
2023-02-21T10:16:40.739Z,11.3
2023-02-21T10:18:42.204Z,11.45
2023-02-21T10:20:43.338Z,11.33
2023-02-21T10:22:44.308Z,11.54
2023-02-21T10:24:46.213Z,11.78
2023-02-21T10:26:47.730Z,11.88
2023-02-21T10:28:48.928Z,12.19
2023-02-21T10:30:50.407Z,12.31
2023-02-21T10:32:51.436Z,12.17
2023-02-21T10:34:52.657Z,12.06
2023-02-21T10:36:54.043Z,12.23
2023-02-21T10:38:55.633Z,12.46
2023-02-21T10:40:57.144Z,12.25
2023-02-21T10:42:58.202Z,12.44
2023-02-21T10:44:59.339Z,12.7
2023-02-21T10:47:00.868Z,12.75
2023-02-21T10:49:02.621Z,12.79
2023-02-21T10:51:04.131Z,12.89
2023-02-21T10:53:05.523Z,13.23
2023-02-21T10:55:07.081Z,13.43
2023-02-21T10:57:08.289Z,13.46
2023-02-21T10:59:09.453Z,13.22
2023-02-21T11:01:10.484Z,13.14
2023-02-21T11:03:19.534Z,12.72
2023-02-21T11:05:12.775Z,13.32
2023-02-21T11:07:14.283Z,13.33
2023-02-21T11:09:15.484Z,12.97
2023-02-21T11:11:17.097Z,13.43
2023-02-21T11:13:18.689Z,13.57
2023-02-21T11:15:20.006Z,13.47
2023-02-21T11:17:20.949Z,13.68
2023-02-21T11:19:21.969Z,13.27
2023-02-21T11:21:23.336Z,13.26
2023-02-21T11:23:24.832Z,13.57
2023-02-21T11:25:25.909Z,13.89
2023-02-21T11:27:26.941Z,13.66
2023-02-21T11:29:28.064Z,13.56
2023-02-21T11:31:29.835Z,13.55
2023-02-21T11:33:31.534Z,13.67
2023-02-21T11:35:32.819Z,13.77
2023-02-21T11:39:35.770Z,13.84
2023-02-21T11:41:36.941Z,13.83
2023-02-21T11:43:38.138Z,14
2023-02-21T11:45:39.646Z,14.19
2023-02-21T11:47:41.413Z,14.05
2023-02-21T11:49:43.172Z,14.19
2023-02-21T11:51:44.404Z,14.22
2023-02-21T11:53:46.075Z,14.05
2023-02-21T11:55:47.502Z,14.14
2023-02-21T11:57:48.527Z,14.42
2023-02-21T11:59:49.429Z,14.42
2023-02-21T12:01:50.388Z,14.54
2023-02-21T12:03:51.609Z,14.03
2023-02-21T12:05:52.809Z,14.32
2023-02-21T12:07:54.080Z,14.61
2023-02-21T12:09:55.323Z,14.29
2023-02-21T12:11:56.842Z,14.31
2023-02-21T12:13:57.696Z,14.34
2023-02-21T12:15:59.255Z,14.21
2023-02-21T12:18:00.140Z,14.46
2023-02-21T12:20:01.430Z,14.6
2023-02-21T12:22:10.906Z,14.63
2023-02-21T12:24:04.559Z,14.74
2023-02-21T12:26:06.155Z,14.84
2023-02-21T12:28:07.365Z,14.85
2023-02-21T12:30:08.375Z,14.86
2023-02-21T12:32:10.302Z,15.03
2023-02-21T12:34:12.152Z,14.98
2023-02-21T12:36:14.333Z,15.38
2023-02-21T12:38:15.820Z,14.88
2023-02-21T12:40:17.583Z,15.09
2023-02-21T12:42:19.239Z,15.02
2023-02-21T12:44:20.855Z,15.21
2023-02-21T12:46:22.166Z,14.95
2023-02-21T12:48:22.999Z,15.33
2023-02-21T12:50:23.961Z,15.5
2023-02-21T12:52:25.451Z,15.48
2023-02-21T12:54:26.346Z,15.35
2023-02-21T12:56:28.142Z,15.31
2023-02-21T12:58:29.399Z,15.5
2023-02-21T13:00:30.686Z,15.25
2023-02-21T13:02:31.552Z,15.41
2023-02-21T13:04:33.250Z,15.43
2023-02-21T13:06:34.113Z,15.59
2023-02-21T13:08:35.107Z,15.6
2023-02-21T13:10:36.669Z,15.26
2023-02-21T13:12:37.941Z,15.07
2023-02-21T13:14:39.161Z,15.67
2023-02-21T13:16:40.263Z,15.77
2023-02-21T13:20:42.358Z,15.15
2023-02-21T13:22:43.988Z,15.54
2023-02-21T13:24:45.081Z,15.53
2023-02-21T13:26:46.047Z,15.77
2023-02-21T13:28:47.158Z,15.81
2023-02-21T13:30:48.677Z,15.74
2023-02-21T13:32:51.117Z,15.83
2023-02-21T13:34:52.069Z,15.97
2023-02-21T13:36:53.643Z,15.78
2023-02-21T13:38:54.632Z,15.79
2023-02-21T13:40:56.332Z,15.96
2023-02-21T13:42:57.508Z,15.8
2023-02-21T13:44:59.178Z,15.78
2023-02-21T13:47:00.632Z,16.05
2023-02-21T13:49:01.526Z,15.8
2023-02-21T13:51:02.968Z,15.73
2023-02-21T13:53:04.559Z,16.16
2023-02-21T13:55:05.434Z,16.24
2023-02-21T13:57:06.557Z,16.17
2023-02-21T13:59:07.376Z,15.93
2023-02-21T14:01:08.922Z,15.79
2023-02-21T14:03:10.074Z,15.85
2023-02-21T14:05:11.578Z,15.77
2023-02-21T14:07:13.415Z,16.09
2023-02-21T14:09:14.796Z,16.19
2023-02-21T14:11:15.944Z,16.31
2023-02-21T14:13:17.705Z,15.63
2023-02-21T14:15:18.834Z,15.66
2023-02-21T14:17:21.082Z,16.15
2023-02-21T14:19:21.212Z,16.32
2023-02-21T14:21:22.924Z,16.55
2023-02-21T14:23:24.433Z,16.79
2023-02-21T14:25:25.586Z,16.83
2023-02-21T14:27:27.080Z,16.56
2023-02-21T14:29:28.632Z,16.63
2023-02-21T14:31:29.585Z,16.41
2023-02-21T14:33:31.345Z,16.42
2023-02-21T14:35:32.197Z,16.55
2023-02-21T14:37:33.360Z,16.57
2023-02-21T14:39:35.083Z,16.88
2023-02-21T14:41:36.801Z,16.63
2023-02-21T14:43:37.864Z,16.52
2023-02-21T14:45:39.192Z,16.75
2023-02-21T14:47:40.491Z,16.43
2023-02-21T14:49:41.712Z,16.52
2023-02-21T14:51:42.892Z,15.97
2023-02-21T14:53:44.639Z,16.33
2023-02-21T14:55:46.669Z,16.33
2023-02-21T14:57:47.094Z,16.66
2023-02-21T14:59:48.809Z,16.81
2023-02-21T15:01:49.850Z,16.53
2023-02-21T15:03:50.901Z,16.59
2023-02-21T15:05:52.258Z,16.39
2023-02-21T15:07:53.765Z,16.27
2023-02-21T15:09:55.085Z,16.24
2023-02-21T15:11:56.259Z,16.31
2023-02-21T15:13:57.333Z,15.86
2023-02-21T15:15:58.190Z,16.3
2023-02-21T15:17:59.343Z,16.57
2023-02-21T15:20:00.318Z,16.36
2023-02-21T15:22:02.102Z,16.69
2023-02-21T15:24:03.577Z,16.66
2023-02-21T15:26:04.963Z,16.53
2023-02-21T15:28:06.236Z,16.5
2023-02-21T15:30:08.028Z,16.69
2023-02-21T15:32:09.396Z,16.73
2023-02-21T15:34:10.898Z,16.78
2023-02-21T15:36:12.400Z,17.17
2023-02-21T15:38:13.387Z,17.17
2023-02-21T15:40:15.110Z,16.96
2023-02-21T15:42:15.931Z,16.55
2023-02-21T15:44:16.915Z,16.21
2023-02-21T15:46:17.821Z,16.05
2023-02-21T15:48:19.263Z,16.39
2023-02-21T15:50:20.680Z,16.58
2023-02-21T15:52:22.203Z,16.68
2023-02-21T15:54:23.041Z,16.07
2023-02-21T15:56:23.938Z,16.06
2023-02-21T15:58:26.343Z,16.38
2023-02-21T16:00:27.413Z,16.21
2023-02-21T16:02:29.630Z,16
2023-02-21T16:04:29.536Z,16.04
2023-02-21T16:06:30.983Z,15.99
2023-02-21T16:08:32.324Z,15.84
2023-02-21T16:10:33.346Z,16.05
2023-02-21T16:12:35.026Z,15.79
2023-02-21T16:15:20.415Z,15.69
2023-02-21T16:17:21.836Z,15.39
2023-02-21T16:19:23.086Z,15.46
2023-02-21T16:21:24.875Z,15.43
2023-02-21T16:23:35.353Z,15.14
2023-02-21T16:25:27.897Z,15.02
2023-02-21T16:27:29.134Z,14.64
2023-02-21T16:29:30.402Z,14.33
2023-02-21T16:31:32.052Z,14
2023-02-21T16:33:33.425Z,13.77
2023-02-21T16:35:34.437Z,13.48
2023-02-21T16:37:35.491Z,13.23
2023-02-21T16:39:36.776Z,12.88
2023-02-21T16:41:38.642Z,12.71
2023-02-21T16:43:40.028Z,12.52
2023-02-21T16:45:41.807Z,12.42
2023-02-21T16:47:43.458Z,12.26
2023-02-21T16:49:45.132Z,12.04
2023-02-21T16:51:46.336Z,11.98
2023-02-21T16:53:47.411Z,11.89
2023-02-21T16:55:48.492Z,11.77
2023-02-21T16:57:51.786Z,11.69
2023-02-21T16:59:51.676Z,11.57
2023-02-21T17:01:52.992Z,11.49
2023-02-21T17:03:54.638Z,11.47
2023-02-21T17:05:56.460Z,11.34
2023-02-21T17:07:58.313Z,11.19
2023-02-21T17:09:59.597Z,11.05
2023-02-21T17:12:00.499Z,10.96
2023-02-21T17:14:01.851Z,11.05
2023-02-21T17:16:03.475Z,10.81
2023-02-21T17:20:06.326Z,10.81
2023-02-21T17:22:07.478Z,10.8
2023-02-21T17:24:09.181Z,10.6
2023-02-21T17:26:10.288Z,10.57
2023-02-21T17:28:12.020Z,10.59
2023-02-21T17:30:13.390Z,10.4
2023-02-21T17:32:16.206Z,10.33
2023-02-21T17:34:15.756Z,10.25
2023-02-21T17:36:17.437Z,10.16
2023-02-21T17:38:18.633Z,10.05
2023-02-21T17:40:20.521Z,9.94
2023-02-21T17:42:21.954Z,9.82
2023-02-21T17:44:22.986Z,9.81
2023-02-21T17:46:24.436Z,9.88
2023-02-21T17:48:25.803Z,9.82
2023-02-21T17:50:27.721Z,9.8
2023-02-21T17:52:29.225Z,9.9
2023-02-21T17:54:30.679Z,9.83
2023-02-21T17:56:31.991Z,9.72
2023-02-21T17:58:33.615Z,9.64
2023-02-21T18:00:35.094Z,9.6
2023-02-21T18:02:36.076Z,9.54
2023-02-21T18:04:37.788Z,9.46
2023-02-21T18:06:38.863Z,9.37
2023-02-21T18:08:40.257Z,9.23
2023-02-21T18:10:41.942Z,9.06
2023-02-21T18:12:42.937Z,8.9
2023-02-21T18:14:44.324Z,8.73
2023-02-21T18:16:45.470Z,8.54
2023-02-21T18:18:47.040Z,8.41
2023-02-21T18:20:48.792Z,8.27
2023-02-21T18:22:50.037Z,8.12
2023-02-21T18:24:51.107Z,8.17
2023-02-21T18:26:52.302Z,8.11
2023-02-21T18:28:54.202Z,8.04
2023-02-21T18:30:55.293Z,7.86
2023-02-21T18:32:57.193Z,7.72
2023-02-21T18:34:58.458Z,7.73
2023-02-21T18:37:00.121Z,7.6
2023-02-21T18:39:01.272Z,7.63
2023-02-21T18:41:03.192Z,7.55
2023-02-21T18:43:04.448Z,7.42
2023-02-21T18:45:06.015Z,7.24
2023-02-21T18:47:07.937Z,7.42
2023-02-21T18:49:09.330Z,7.33
2023-02-21T18:51:11.244Z,7.3
2023-02-21T18:53:12.506Z,7.19
2023-02-21T18:55:14.012Z,7.25
2023-02-21T18:57:15.499Z,7.15
2023-02-21T18:59:17.441Z,7.04
2023-02-21T19:01:19.643Z,6.99
2023-02-21T19:03:20.409Z,6.94
2023-02-21T19:05:21.518Z,6.91
2023-02-21T19:07:23.022Z,6.95
2023-02-21T19:09:24.958Z,7.01
2023-02-21T19:11:26.293Z,7.03
2023-02-21T19:13:27.437Z,6.98
2023-02-21T19:15:28.820Z,6.85
2023-02-21T19:17:30.585Z,6.77
2023-02-21T19:19:32.416Z,6.59
2023-02-21T19:21:33.696Z,6.52
2023-02-21T19:23:35.202Z,6.41
2023-02-21T19:25:36.993Z,6.32
2023-02-21T19:27:38.528Z,6.38
2023-02-21T19:29:39.650Z,6.33
2023-02-21T19:31:41.238Z,6.28
2023-02-21T19:33:42.596Z,6.37
2023-02-21T19:35:44.114Z,6.39
2023-02-21T19:37:45.991Z,6.29
2023-02-21T19:39:47.185Z,6.33
2023-02-21T19:41:48.253Z,6.44
2023-02-21T19:43:50.203Z,6.75
2023-02-21T19:45:51.408Z,6.8
2023-02-21T19:47:52.760Z,6.79
2023-02-21T19:49:54.427Z,6.82
2023-02-21T19:51:55.948Z,6.8
2023-02-21T19:53:57.532Z,6.85
2023-02-21T19:55:58.662Z,6.79
2023-02-21T19:58:00.320Z,6.64
2023-02-21T20:00:01.564Z,6.57
2023-02-21T20:02:03.524Z,6.37
2023-02-21T20:04:04.593Z,6.24
2023-02-21T20:06:05.738Z,6.09
2023-02-21T20:08:07.347Z,6.16
2023-02-21T20:10:08.727Z,6.16
2023-02-21T20:12:09.841Z,6.15
2023-02-21T20:14:10.929Z,6.16
2023-02-21T20:16:11.986Z,6.07
2023-02-21T20:18:13.601Z,5.9
2023-02-21T20:20:15.279Z,5.8
2023-02-21T20:22:16.996Z,5.88
2023-02-21T20:24:26.284Z,5.76
2023-02-21T20:26:19.933Z,5.56
2023-02-21T20:28:21.822Z,5.32
2023-02-21T20:30:24.935Z,5.2
2023-02-21T20:32:24.240Z,5
2023-02-21T20:34:25.945Z,4.93
2023-02-21T20:36:27.158Z,4.91
2023-02-21T20:38:28.887Z,4.86
2023-02-21T20:40:30.659Z,4.83
2023-02-21T20:42:31.903Z,4.82
2023-02-21T20:44:33.438Z,4.86
2023-02-21T20:46:35.058Z,4.81
2023-02-21T20:48:36.079Z,4.74
2023-02-21T20:50:37.445Z,4.69
2023-02-21T20:52:41.161Z,4.69
2023-02-21T20:54:40.133Z,4.54
2023-02-21T20:56:41.934Z,4.62
2023-02-21T20:58:43.613Z,4.58
2023-02-21T21:00:45.204Z,4.52
2023-02-21T21:02:47.114Z,4.51
2023-02-21T21:04:49.082Z,4.52
2023-02-21T21:06:50.506Z,4.46
2023-02-21T21:08:51.771Z,4.35
2023-02-21T21:10:53.464Z,4.39
2023-02-21T21:12:54.854Z,4.29
2023-02-21T21:14:56.710Z,4.39
2023-02-21T21:16:58.573Z,4.34
2023-02-21T21:18:59.771Z,4.25
2023-02-21T21:21:01.737Z,4.11
2023-02-21T21:23:02.851Z,3.95
2023-02-21T21:25:03.974Z,3.81
2023-02-21T21:27:08.313Z,3.75
2023-02-21T21:29:07.116Z,3.86
2023-02-21T21:31:08.233Z,3.96
2023-02-21T21:33:09.404Z,3.97
2023-02-21T21:35:18.653Z,3.94
2023-02-21T21:37:11.894Z,3.85
2023-02-21T21:39:12.945Z,3.82
2023-02-21T21:41:15.135Z,3.97
2023-02-21T21:43:15.912Z,3.92
2023-02-21T21:45:17.132Z,3.82
2023-02-21T21:47:18.627Z,3.83
2023-02-21T21:49:19.923Z,3.83
2023-02-21T21:51:21.327Z,3.77
2023-02-21T21:53:22.588Z,3.74
2023-02-21T21:55:24.468Z,3.77
2023-02-21T21:57:27.077Z,3.75
2023-02-21T21:59:27.967Z,3.59
2023-02-21T22:01:29.757Z,3.55
2023-02-21T22:03:31.693Z,3.54
2023-02-21T22:05:33.017Z,3.56
2023-02-21T22:07:34.668Z,3.54
2023-02-21T22:09:36.259Z,3.74
2023-02-21T22:11:37.542Z,3.77
2023-02-21T22:13:39.336Z,3.86
2023-02-21T22:15:41.065Z,3.77
2023-02-21T22:17:42.274Z,3.67
2023-02-21T22:19:44.321Z,3.52
2023-02-21T22:21:45.247Z,3.47
2023-02-21T22:23:46.991Z,3.48
2023-02-21T22:25:49.036Z,3.46
2023-02-21T22:27:50.178Z,3.78
2023-02-21T22:29:51.528Z,3.78
2023-02-21T22:31:52.664Z,3.7
2023-02-21T22:33:53.642Z,3.69
2023-02-21T22:35:55.137Z,3.78
2023-02-21T22:37:56.760Z,3.78
2023-02-21T22:39:58.518Z,3.77
2023-02-21T22:42:00.089Z,3.74
2023-02-21T22:44:01.409Z,3.66
2023-02-21T22:46:02.461Z,3.34
2023-02-21T22:50:05.194Z,3.12
2023-02-21T22:52:06.870Z,3.09
2023-02-21T22:54:08.157Z,3.04
2023-02-21T22:56:10.008Z,3.03
2023-02-21T22:58:11.316Z,3.04
2023-02-21T23:00:57.108Z,3.02
2023-02-21T23:02:58.552Z,2.99
2023-02-21T23:05:00.028Z,3.08
2023-02-21T23:07:01.852Z,3.1
2023-02-21T23:09:03.366Z,2.95
2023-02-21T23:11:05.018Z,2.88
2023-02-21T23:13:05.980Z,2.8
2023-02-21T23:15:07.727Z,2.77
2023-02-21T23:17:09.121Z,2.84
2023-02-21T23:19:10.950Z,2.89
2023-02-21T23:21:12.185Z,2.86
2023-02-21T23:23:13.347Z,2.76
2023-02-21T23:25:22.782Z,2.66
2023-02-21T23:27:16.463Z,2.65
2023-02-21T23:29:17.783Z,2.57
2023-02-21T23:31:19.925Z,2.48
2023-02-21T23:33:21.366Z,2.37
2023-02-21T23:35:23.186Z,2.43
2023-02-21T23:37:25.056Z,2.42
2023-02-21T23:39:26.989Z,2.31
2023-02-21T23:41:28.291Z,2.23
2023-02-21T23:43:29.813Z,2.2
2023-02-21T23:45:30.800Z,2.2
2023-02-21T23:47:32.284Z,2.17
2023-02-21T23:49:33.567Z,2.07
2023-02-21T23:51:35.064Z,1.99
2023-02-21T23:53:36.171Z,1.9
2023-02-21T23:55:38.057Z,2.01
2023-02-21T23:57:39.291Z,2.03
2023-02-21T23:59:41.153Z,2.03
